createdAt,value
2016-11-25T12:43:35.225Z,1015.43
2016-11-25T12:44:45.015Z,1015.44
2016-11-25T12:45:54.916Z,1015.46
2016-11-25T12:47:04.514Z,1015.47
2016-11-25T12:48:13.987Z,1015.46
2016-11-25T12:49:23.447Z,1015.47
2016-11-25T12:50:32.836Z,1015.41
2016-11-25T12:51:41.948Z,1015.47
2016-11-25T12:52:51.091Z,1015.42
2016-11-25T12:54:00.324Z,1015.37
2016-11-25T12:55:09.506Z,1015.37
2016-11-25T12:56:18.762Z,1015.37
2016-11-25T12:57:28.015Z,1015.38
2016-11-25T12:58:37.162Z,1015.33
2016-11-25T12:59:46.432Z,1015.35
2016-11-25T13:00:55.838Z,1015.39
2016-11-25T13:02:05.309Z,1015.34
2016-11-25T13:03:14.779Z,1015.33
2016-11-25T13:04:23.839Z,1015.35
2016-11-25T13:05:32.996Z,1015.35
2016-11-25T13:06:42.479Z,1015.41
2016-11-25T13:07:51.953Z,1015.41
2016-11-25T13:09:01.043Z,1015.4
2016-11-25T13:10:11.175Z,1015.38
2016-11-25T13:11:20.679Z,1015.38
2016-11-25T13:12:29.852Z,1015.38
2016-11-25T13:13:39.017Z,1015.37
2016-11-25T13:14:48.143Z,1015.4
2016-11-25T13:15:57.820Z,1015.32
2016-11-25T13:17:08.209Z,1015.3
2016-11-25T13:18:17.375Z,1015.32
2016-11-25T13:19:26.512Z,1015.34
2016-11-25T13:20:35.720Z,1015.34
2016-11-25T13:21:45.103Z,1015.37
2016-11-25T13:22:54.490Z,1015.3
2016-11-25T13:24:03.802Z,1015.31
2016-11-25T13:25:12.995Z,1015.32
2016-11-25T13:26:22.310Z,1015.29
2016-11-25T13:27:31.547Z,1015.31
2016-11-25T13:28:40.707Z,1015.27
2016-11-25T13:29:49.916Z,1015.23
2016-11-25T13:30:59.237Z,1015.21
2016-11-25T13:32:08.307Z,1015.27
2016-11-25T13:33:17.427Z,1015.27
2016-11-25T13:34:26.581Z,1015.24
2016-11-25T13:35:35.852Z,1015.2
2016-11-25T13:36:44.979Z,1015.29
2016-11-25T13:37:54.573Z,1015.21
2016-11-25T13:39:03.704Z,1015.23
2016-11-25T13:40:12.927Z,1015.25
2016-11-25T13:41:22.557Z,1015.21
2016-11-25T13:42:31.867Z,1015.24
2016-11-25T13:43:40.938Z,1015.21
2016-11-25T13:44:50.972Z,1015.23
2016-11-25T13:46:00.270Z,1015.23
2016-11-25T13:47:09.434Z,1015.23
2016-11-25T13:48:18.639Z,1015.22
2016-11-25T13:49:28.025Z,1015.24
2016-11-25T13:50:37.489Z,1015.24
2016-11-25T13:51:46.600Z,1015.17
2016-11-25T13:52:55.921Z,1015.19
2016-11-25T13:54:05.390Z,1015.16
2016-11-25T13:55:14.673Z,1015.16
2016-11-25T13:56:24.469Z,1015.15
2016-11-25T13:57:33.659Z,1015.2
2016-11-25T13:58:43.052Z,1015.16
2016-11-25T13:59:52.267Z,1015.17
2016-11-25T14:01:01.511Z,1015.15
2016-11-25T14:02:10.709Z,1015.19
2016-11-25T14:03:20.735Z,1015.15
2016-11-25T14:04:31.593Z,1015.1
